createdAt,value
2023-04-22T00:01:40.089Z,5.73
2023-04-22T00:04:09.217Z,5.77
2023-04-22T00:06:37.634Z,4.63
2023-04-22T00:09:07.045Z,4.40
2023-04-22T00:11:35.000Z,5.60
2023-04-22T00:14:02.984Z,4.80
2023-04-22T00:16:31.012Z,4.43
2023-04-22T00:18:59.105Z,5.73
2023-04-22T00:21:27.481Z,5.13
2023-04-22T00:23:55.695Z,6.80
2023-04-22T00:26:25.272Z,3.93
2023-04-22T00:28:53.238Z,3.53
2023-04-22T00:31:21.231Z,6.37
2023-04-22T00:33:49.210Z,5.70
2023-04-22T00:36:17.250Z,5.43
2023-04-22T00:38:49.598Z,7.57
2023-04-22T00:41:18.245Z,4.50
2023-04-22T00:43:48.072Z,4.03
2023-04-22T00:46:17.674Z,5.33
2023-04-22T00:48:47.292Z,4.50
2023-04-22T00:51:15.342Z,5.87
2023-04-22T00:53:43.276Z,5.90
2023-04-22T00:56:12.848Z,8.47
2023-04-22T00:58:41.156Z,5.93
2023-04-22T01:01:10.548Z,3.83
2023-04-22T01:03:41.601Z,7.27
2023-04-22T01:06:09.883Z,6.43
2023-04-22T01:08:37.952Z,8.57
2023-04-22T01:11:06.167Z,9.87
2023-04-22T01:13:35.901Z,5.17
2023-04-22T01:16:04.049Z,3.93
2023-04-22T01:18:34.223Z,8.87
2023-04-22T01:21:03.452Z,5.53
2023-04-22T01:23:32.912Z,5.23
2023-04-22T01:26:01.541Z,4.63
2023-04-22T01:28:30.461Z,5.13
2023-04-22T01:30:58.683Z,6.50
2023-04-22T01:33:26.868Z,5.67
2023-04-22T01:35:54.934Z,5.20
2023-04-22T01:38:23.099Z,6.20
2023-04-22T01:40:53.030Z,7.23
2023-04-22T01:43:21.154Z,5.80
2023-04-22T01:45:49.254Z,6.20
2023-04-22T01:48:17.439Z,4.97
2023-04-22T01:50:45.848Z,8.70
2023-04-22T01:53:14.445Z,7.83
2023-04-22T01:55:43.971Z,6.20
2023-04-22T01:58:13.305Z,9.67
2023-04-22T02:00:41.346Z,5.13
2023-04-22T02:03:09.416Z,7.80
2023-04-22T02:05:38.081Z,5.33
2023-04-22T02:08:06.049Z,10.53
2023-04-22T02:10:34.014Z,6.20
2023-04-22T02:13:01.971Z,6.87
2023-04-22T02:15:31.566Z,5.50
2023-04-22T02:18:00.026Z,5.77
2023-04-22T02:20:28.019Z,5.57
2023-04-22T02:22:55.987Z,8.87
2023-04-22T02:25:24.101Z,6.23
2023-04-22T02:27:52.100Z,5.57
2023-04-22T02:30:20.068Z,7.00
2023-04-22T02:32:49.926Z,9.80
2023-04-22T02:35:18.013Z,6.50
2023-04-22T02:37:45.974Z,4.97
2023-04-22T02:40:14.184Z,4.43
2023-04-22T02:42:42.194Z,5.77
2023-04-22T02:45:11.144Z,4.47
2023-04-22T02:47:39.228Z,8.83
2023-04-22T02:50:09.951Z,5.17
2023-04-22T02:52:37.986Z,3.63
2023-04-22T02:55:06.633Z,7.57
2023-04-22T02:57:34.656Z,7.73
2023-04-22T03:00:02.904Z,5.30
2023-04-22T03:02:31.259Z,5.17
2023-04-22T03:05:00.926Z,3.40
2023-04-22T03:07:30.262Z,4.57
2023-04-22T03:09:58.252Z,4.50
2023-04-22T03:12:26.435Z,4.57
2023-04-22T03:14:54.391Z,4.53
2023-04-22T03:17:22.516Z,4.30
2023-04-22T03:19:50.538Z,4.23
2023-04-22T03:22:18.521Z,5.60
2023-04-22T03:24:47.812Z,4.50
2023-04-22T03:27:15.749Z,4.97
2023-04-22T03:29:43.717Z,5.40
2023-04-22T03:32:12.141Z,5.37
2023-04-22T03:34:40.148Z,8.53
2023-04-22T03:37:08.270Z,11.97
2023-04-22T03:39:36.452Z,4.90
2023-04-22T03:42:06.321Z,5.83
2023-04-22T03:44:34.276Z,5.67
2023-04-22T03:47:02.472Z,6.50
2023-04-22T03:49:30.904Z,8.80
2023-04-22T03:51:59.253Z,11.37
2023-04-22T03:54:28.595Z,8.13
2023-04-22T03:56:56.742Z,10.90
2023-04-22T03:59:26.155Z,10.63
2023-04-22T04:01:54.868Z,7.90
2023-04-22T04:04:24.341Z,8.37
2023-04-22T04:06:52.589Z,9.50
2023-04-22T04:09:20.536Z,7.80
2023-04-22T04:11:48.591Z,7.00
2023-04-22T04:14:16.710Z,8.00
2023-04-22T04:16:46.088Z,8.50
2023-04-22T04:19:14.084Z,10.77
2023-04-22T04:21:42.506Z,9.37
2023-04-22T04:24:10.516Z,10.97
2023-04-22T04:26:38.513Z,11.63
2023-04-22T04:29:06.774Z,6.77
2023-04-22T04:31:35.373Z,10.77
2023-04-22T04:34:05.812Z,8.57
2023-04-22T04:36:34.370Z,7.07
2023-04-22T04:39:02.551Z,5.30
2023-04-22T04:41:31.898Z,10.03
2023-04-22T04:44:00.560Z,5.80
2023-04-22T04:46:29.785Z,8.53
2023-04-22T04:48:58.827Z,5.97
2023-04-22T04:51:28.287Z,4.80
2023-04-22T04:53:56.255Z,8.67
2023-04-22T04:56:24.238Z,6.87
2023-04-22T04:58:52.180Z,5.70
2023-04-22T05:01:20.179Z,8.53
2023-04-22T05:03:48.315Z,5.60
2023-04-22T05:06:16.442Z,5.93
2023-04-22T05:08:45.708Z,6.70
2023-04-22T05:11:13.817Z,5.80
2023-04-22T05:13:41.787Z,6.37
2023-04-22T05:16:09.855Z,6.60
2023-04-22T05:18:37.878Z,6.40
2023-04-22T05:21:06.204Z,6.73
2023-04-22T05:23:34.444Z,7.33
2023-04-22T05:26:03.800Z,7.27
2023-04-22T05:28:31.928Z,8.57
2023-04-22T05:30:59.900Z,4.57
2023-04-22T05:33:27.839Z,7.03
2023-04-22T05:35:56.320Z,7.33
2023-04-22T05:38:24.305Z,6.87
2023-04-22T05:40:52.516Z,7.53
2023-04-22T05:43:21.854Z,5.60
2023-04-22T05:45:49.969Z,7.03
2023-04-22T05:48:17.923Z,8.33
2023-04-22T05:50:45.950Z,9.13
2023-04-22T05:53:13.936Z,7.43
2023-04-22T05:55:42.379Z,5.27
2023-04-22T05:58:10.500Z,5.43
2023-04-22T06:00:39.841Z,10.50
2023-04-22T06:03:08.092Z,8.10
2023-04-22T06:05:36.635Z,8.30
2023-04-22T06:08:04.771Z,7.27
2023-04-22T06:10:32.795Z,6.23
2023-04-22T06:13:01.260Z,7.37
2023-04-22T06:15:29.859Z,6.00
2023-04-22T06:17:59.225Z,7.03
2023-04-22T06:20:27.452Z,6.37
2023-04-22T06:22:55.479Z,4.83
2023-04-22T06:25:23.425Z,5.00
2023-04-22T06:27:51.407Z,6.27
2023-04-22T06:30:19.405Z,4.47
2023-04-22T06:32:47.397Z,5.60
2023-04-22T06:35:16.975Z,4.50
2023-04-22T06:37:45.122Z,4.43
2023-04-22T06:40:13.400Z,4.13
2023-04-22T06:42:41.461Z,3.50
2023-04-22T06:45:12.785Z,4.13
2023-04-22T06:47:41.024Z,3.40
2023-04-22T06:50:10.545Z,4.20
2023-04-22T06:52:39.864Z,5.50
2023-04-22T06:55:08.565Z,4.73
2023-04-22T06:57:36.565Z,3.17
2023-04-22T07:00:05.356Z,5.30
2023-04-22T07:02:33.638Z,3.67
2023-04-22T07:05:01.662Z,4.17
2023-04-22T07:07:29.762Z,4.40
2023-04-22T07:09:59.173Z,3.83
2023-04-22T07:12:27.174Z,3.30
2023-04-22T07:14:55.128Z,2.60
2023-04-22T07:17:23.123Z,2.40
2023-04-22T07:19:51.258Z,4.27
2023-04-22T07:22:19.180Z,3.37
2023-04-22T07:24:47.148Z,2.80
2023-04-22T07:27:17.259Z,5.87
2023-04-22T07:29:45.246Z,2.47
2023-04-22T07:32:13.269Z,3.17
2023-04-22T07:34:41.350Z,3.13
2023-04-22T07:37:09.617Z,4.70
2023-04-22T07:39:37.952Z,4.57
2023-04-22T07:42:07.371Z,2.50
2023-04-22T07:44:38.810Z,2.40
2023-04-22T07:47:08.673Z,2.57
2023-04-22T07:49:36.795Z,2.77
2023-04-22T07:52:04.918Z,2.30
2023-04-22T07:54:32.883Z,1.90
2023-04-22T07:57:01.675Z,3.43
2023-04-22T07:59:29.631Z,2.07
2023-04-22T08:01:58.967Z,3.00
2023-04-22T08:04:27.245Z,1.93
2023-04-22T08:06:56.211Z,2.60
2023-04-22T08:09:24.278Z,2.93
2023-04-22T08:11:53.602Z,1.70
2023-04-22T08:14:21.632Z,2.43
2023-04-22T08:16:49.719Z,2.47
2023-04-22T08:19:19.498Z,2.20
2023-04-22T08:21:48.708Z,1.97
2023-04-22T08:24:16.681Z,1.77
2023-04-22T08:26:44.816Z,3.17
2023-04-22T08:29:12.987Z,2.87
2023-04-22T08:31:41.364Z,3.40
2023-04-22T08:34:09.388Z,2.00
2023-04-22T08:36:38.710Z,2.27
2023-04-22T08:39:06.740Z,3.73
2023-04-22T08:41:35.661Z,5.43
2023-04-22T08:44:04.213Z,2.23
2023-04-22T08:46:32.733Z,3.60
2023-04-22T08:49:03.956Z,2.57
2023-04-22T08:51:33.699Z,2.70
2023-04-22T08:54:03.264Z,3.33
2023-04-22T08:56:32.547Z,3.73
2023-04-22T08:59:01.058Z,2.37
2023-04-22T09:01:32.133Z,3.10
2023-04-22T09:04:01.250Z,2.67
2023-04-22T09:06:29.277Z,5.20
2023-04-22T09:08:59.234Z,3.17
2023-04-22T09:11:29.524Z,2.27
2023-04-22T09:13:57.606Z,2.73
2023-04-22T09:16:25.616Z,3.73
2023-04-22T09:18:53.698Z,2.33
2023-04-22T09:21:21.773Z,2.93
2023-04-22T09:23:52.008Z,4.30
2023-04-22T09:26:21.863Z,3.97
2023-04-22T09:28:52.895Z,2.67
2023-04-22T09:31:22.264Z,3.23
2023-04-22T09:33:52.366Z,2.70
2023-04-22T09:36:24.312Z,3.10
2023-04-22T09:38:57.251Z,3.37
2023-04-22T09:41:29.394Z,4.57
2023-04-22T09:43:59.889Z,28.07
2023-04-22T09:46:29.191Z,3.60
2023-04-22T09:48:58.716Z,7.27
2023-04-22T09:51:28.586Z,5.20
2023-04-22T09:54:01.921Z,4.77
2023-04-22T09:56:43.817Z,2.80
2023-04-22T09:59:13.357Z,4.87
2023-04-22T10:01:42.645Z,2.43
2023-04-22T10:04:11.864Z,4.00
2023-04-22T10:06:39.891Z,4.40
2023-04-22T10:09:09.499Z,3.17
2023-04-22T10:11:38.654Z,8.53
2023-04-22T10:14:06.677Z,3.60
2023-04-22T10:16:36.968Z,3.70
2023-04-22T10:19:08.285Z,5.40
2023-04-22T10:21:37.481Z,3.10
2023-04-22T10:24:06.093Z,2.97
2023-04-22T10:26:41.455Z,5.67
2023-04-22T10:29:13.490Z,5.20
2023-04-22T10:31:42.881Z,4.00
2023-04-22T10:34:13.280Z,6.33
2023-04-22T10:36:58.852Z,3.53
2023-04-22T10:39:28.508Z,5.90
2023-04-22T10:42:09.969Z,4.33
2023-04-22T10:44:49.675Z,5.57
2023-04-22T10:47:30.762Z,2.97
2023-04-22T10:50:19.034Z,5.83
2023-04-22T10:52:49.785Z,5.63
2023-04-22T10:55:18.069Z,4.47
2023-04-22T10:57:47.290Z,2.95
2023-04-22T11:00:45.778Z,3.00
2023-04-22T11:03:28.617Z,3.95
2023-04-22T11:06:17.040Z,2.55
2023-04-22T11:08:49.457Z,4.25
2023-04-22T11:11:19.603Z,2.90
2023-04-22T11:13:50.687Z,3.95
2023-04-22T11:16:22.427Z,3.40
2023-04-22T11:18:52.080Z,4.72
2023-04-22T11:21:21.601Z,6.30
2023-04-22T11:23:52.401Z,4.13
2023-04-22T11:26:33.707Z,3.05
2023-04-22T11:29:01.794Z,4.72
2023-04-22T11:31:29.877Z,4.93
2023-04-22T11:34:01.815Z,3.90
2023-04-22T11:36:29.948Z,8.35
2023-04-22T11:38:58.330Z,3.45
2023-04-22T11:41:26.335Z,4.15
2023-04-22T11:43:55.739Z,3.63
2023-04-22T11:46:31.501Z,2.60
2023-04-22T11:49:15.128Z,2.42
2023-04-22T11:51:56.317Z,3.30
2023-04-22T11:54:34.852Z,4.05
2023-04-22T11:57:08.470Z,3.95
2023-04-22T11:59:36.753Z,3.60
2023-04-22T12:02:06.897Z,3.85
2023-04-22T12:04:39.819Z,2.88
2023-04-22T12:07:07.998Z,3.55
2023-04-22T12:09:36.139Z,4.53
2023-04-22T12:12:05.036Z,2.58
2023-04-22T12:14:33.883Z,4.47
2023-04-22T12:17:04.659Z,3.40
2023-04-22T12:19:32.948Z,4.97
2023-04-22T12:22:02.519Z,3.08
2023-04-22T12:24:31.291Z,3.00
2023-04-22T12:26:59.651Z,3.67
2023-04-22T12:29:32.392Z,4.55
2023-04-22T12:32:00.628Z,6.82
2023-04-22T12:34:28.739Z,3.15
2023-04-22T12:36:56.985Z,3.00
2023-04-22T12:39:26.561Z,2.85
2023-04-22T12:41:54.539Z,3.03
2023-04-22T12:44:24.957Z,4.28
2023-04-22T12:46:53.748Z,4.53
2023-04-22T12:49:21.991Z,6.78
2023-04-22T12:51:50.406Z,4.00
2023-04-22T12:54:18.514Z,2.80
2023-04-22T12:56:49.005Z,3.63
2023-04-22T12:59:17.078Z,2.20
2023-04-22T13:01:45.099Z,2.50
2023-04-22T13:04:13.302Z,2.92
2023-04-22T13:06:44.107Z,3.92
2023-04-22T13:09:13.355Z,3.25
2023-04-22T13:11:41.338Z,2.85
2023-04-22T13:14:11.366Z,3.10
2023-04-22T13:16:39.385Z,3.63
2023-04-22T13:19:07.723Z,2.90
2023-04-22T13:21:35.784Z,2.72
2023-04-22T13:24:04.001Z,2.65
2023-04-22T13:26:32.324Z,5.22
2023-04-22T13:29:02.618Z,2.83
2023-04-22T13:31:32.239Z,4.47
2023-04-22T13:34:00.292Z,2.67
2023-04-22T13:36:28.283Z,2.90
2023-04-22T13:38:56.278Z,2.80
2023-04-22T13:41:24.218Z,2.85
2023-04-22T13:43:54.375Z,2.65
2023-04-22T13:46:22.584Z,6.88
2023-04-22T13:48:51.970Z,2.50
2023-04-22T13:51:19.931Z,2.92
2023-04-22T13:53:47.899Z,2.67
2023-04-22T13:56:15.978Z,5.50
2023-04-22T13:58:43.968Z,3.92
2023-04-22T14:01:12.011Z,7.43
2023-04-22T14:03:40.343Z,2.10
2023-04-22T14:06:10.090Z,6.35
2023-04-22T14:08:39.286Z,2.88
2023-04-22T14:11:08.725Z,6.50
2023-04-22T14:13:36.949Z,3.03
2023-04-22T14:16:09.751Z,3.53
2023-04-22T14:18:38.576Z,3.30
2023-04-22T14:21:09.581Z,4.20
2023-04-22T14:23:39.804Z,3.00
2023-04-22T14:26:09.142Z,3.20
2023-04-22T14:28:37.975Z,2.78
2023-04-22T14:31:06.280Z,7.38
2023-04-22T14:33:34.420Z,5.72
2023-04-22T14:36:02.632Z,6.43
2023-04-22T14:38:30.791Z,2.92
2023-04-22T14:41:00.207Z,6.45
2023-04-22T14:43:28.211Z,3.50
2023-04-22T14:45:56.453Z,3.78
2023-04-22T14:48:25.513Z,4.03
2023-04-22T14:50:53.590Z,8.32
2023-04-22T14:53:21.674Z,7.00
2023-04-22T14:55:49.696Z,4.15
2023-04-22T14:58:19.098Z,7.70
2023-04-22T15:00:49.050Z,4.85
2023-04-22T15:03:17.214Z,6.03
2023-04-22T15:05:49.215Z,6.13
2023-04-22T15:08:17.191Z,4.95
2023-04-22T15:10:45.279Z,4.55
2023-04-22T15:13:13.324Z,7.90
2023-04-22T15:15:42.870Z,33.08
2023-04-22T15:18:11.765Z,5.90
2023-04-22T15:20:39.759Z,9.32
2023-04-22T15:23:07.710Z,5.80
2023-04-22T15:25:36.093Z,5.05
2023-04-22T15:28:04.382Z,5.68
2023-04-22T15:30:32.473Z,8.93
2023-04-22T15:33:02.109Z,16.85
2023-04-22T15:35:30.409Z,10.32
2023-04-22T15:37:59.276Z,8.43
2023-04-22T15:40:27.518Z,20.05
2023-04-22T15:42:55.540Z,11.95
2023-04-22T15:45:23.554Z,7.15
2023-04-22T15:47:52.409Z,5.88
2023-04-22T15:50:23.500Z,5.22
2023-04-22T15:52:51.548Z,6.30
2023-04-22T15:55:19.512Z,8.07
2023-04-22T15:57:47.535Z,5.53
2023-04-22T16:00:16.473Z,6.32
2023-04-22T16:02:45.078Z,8.13
2023-04-22T16:05:14.570Z,8.68
2023-04-22T16:07:44.241Z,7.85
2023-04-22T16:10:12.464Z,6.05
2023-04-22T16:12:40.441Z,6.82
2023-04-22T16:15:10.574Z,7.82
2023-04-22T16:17:39.252Z,5.60
2023-04-22T16:20:08.969Z,8.07
2023-04-22T16:22:37.095Z,5.55
2023-04-22T16:25:09.745Z,5.70
2023-04-22T16:27:37.724Z,8.48
2023-04-22T16:30:07.234Z,5.05
2023-04-22T16:32:35.612Z,11.40
2023-04-22T16:35:04.626Z,11.30
2023-04-22T16:37:34.367Z,16.73
2023-04-22T16:40:02.782Z,20.38
2023-04-22T16:42:32.161Z,22.30
2023-04-22T16:45:00.391Z,18.60
2023-04-22T16:47:28.479Z,16.45
2023-04-22T16:49:56.813Z,17.73
2023-04-22T16:52:24.843Z,8.82
2023-04-22T16:54:52.816Z,11.00
2023-04-22T16:57:20.861Z,11.82
2023-04-22T16:59:50.141Z,11.40
2023-04-22T17:02:18.244Z,13.02
2023-04-22T17:04:46.299Z,7.82
2023-04-22T17:07:14.302Z,7.57
2023-04-22T17:09:42.482Z,7.30
2023-04-22T17:12:11.156Z,8.70
2023-04-22T17:14:39.182Z,8.65
2023-04-22T17:17:08.624Z,7.97
2023-04-22T17:19:37.104Z,7.63
2023-04-22T17:22:05.409Z,8.88
2023-04-22T17:24:33.489Z,8.43
2023-04-22T17:27:01.710Z,9.32
2023-04-22T17:29:30.349Z,7.90
2023-04-22T17:31:58.417Z,9.32
2023-04-22T17:34:28.367Z,12.95
2023-04-22T17:36:56.616Z,10.70
2023-04-22T17:39:24.684Z,11.48
2023-04-22T17:41:52.684Z,11.25
2023-04-22T17:44:20.631Z,10.48
2023-04-22T17:46:48.631Z,18.02
2023-04-22T17:49:16.861Z,8.98
2023-04-22T17:51:46.409Z,18.30
2023-04-22T17:54:14.550Z,14.65
2023-04-22T17:56:42.748Z,14.88
2023-04-22T17:59:11.512Z,20.05
2023-04-22T18:01:40.092Z,15.63
2023-04-22T18:04:08.215Z,23.67
2023-04-22T18:06:36.504Z,18.08
2023-04-22T18:09:05.893Z,21.10
2023-04-22T18:11:34.314Z,22.77
2023-04-22T18:14:02.584Z,16.42
2023-04-22T18:16:30.795Z,17.55
2023-04-22T18:18:59.890Z,19.67
2023-04-22T18:21:29.454Z,18.70
2023-04-22T18:23:57.773Z,15.30
2023-04-22T18:26:27.604Z,19.83
2023-04-22T18:28:55.772Z,15.23
2023-04-22T18:31:23.933Z,34.78
2023-04-22T18:33:52.026Z,21.02
2023-04-22T18:36:20.083Z,21.00
2023-04-22T18:38:48.228Z,32.25
2023-04-22T18:41:16.500Z,27.38
2023-04-22T18:43:47.159Z,25.27
2023-04-22T18:46:15.304Z,29.23
2023-04-22T18:48:43.538Z,24.23
2023-04-22T18:51:12.502Z,19.20
2023-04-22T18:53:40.606Z,23.53
2023-04-22T18:56:08.698Z,17.63
2023-04-22T18:58:37.047Z,24.17
2023-04-22T19:01:07.058Z,21.43
2023-04-22T19:03:35.756Z,21.53
2023-04-22T19:06:04.036Z,24.70
2023-04-22T19:08:32.247Z,29.90
2023-04-22T19:11:00.524Z,36.67
2023-04-22T19:13:30.185Z,28.87
2023-04-22T19:15:58.903Z,46.73
2023-04-22T19:18:28.509Z,55.23
2023-04-22T19:20:56.568Z,49.57
2023-04-22T19:23:24.864Z,54.63
2023-04-22T19:25:53.333Z,55.87
2023-04-22T19:28:21.526Z,42.73
2023-04-22T19:30:49.787Z,50.70
2023-04-22T19:33:18.027Z,45.63
2023-04-22T19:35:47.386Z,45.20
2023-04-22T19:38:19.169Z,44.20
2023-04-22T19:40:47.536Z,45.20
2023-04-22T19:43:17.121Z,51.53
2023-04-22T19:45:45.598Z,47.30
2023-04-22T19:48:14.426Z,51.07
2023-04-22T19:50:44.888Z,44.47
2023-04-22T19:53:14.761Z,39.97
2023-04-22T19:55:44.413Z,38.97
2023-04-22T19:58:12.681Z,25.83
2023-04-22T20:00:42.551Z,34.90
2023-04-22T20:03:13.144Z,52.83
2023-04-22T20:05:42.459Z,41.30
2023-04-22T20:08:11.404Z,41.17
2023-04-22T20:10:41.347Z,43.70
2023-04-22T20:13:09.858Z,57.60
2023-04-22T20:15:38.204Z,70.00
2023-04-22T20:18:06.884Z,70.63
2023-04-22T20:20:35.196Z,65.27
2023-04-22T20:23:09.757Z,58.17
2023-04-22T20:25:44.117Z,41.70
2023-04-22T20:28:14.424Z,56.70
2023-04-22T20:30:43.000Z,27.13
2023-04-22T20:33:15.754Z,33.57
2023-04-22T20:35:46.173Z,33.50
2023-04-22T20:38:15.289Z,27.87
2023-04-22T20:40:46.280Z,24.03
2023-04-22T20:43:14.524Z,20.80
2023-04-22T20:45:43.397Z,34.20
2023-04-22T20:48:11.667Z,24.90
2023-04-22T20:50:39.663Z,25.63
2023-04-22T20:53:07.728Z,31.00
2023-04-22T20:55:37.243Z,28.93
2023-04-22T20:58:07.054Z,36.20
2023-04-22T21:00:35.502Z,22.87
2023-04-22T21:03:05.523Z,30.50
2023-04-22T21:05:40.768Z,26.83
2023-04-22T21:08:19.867Z,24.17
2023-04-22T21:10:48.762Z,26.33
2023-04-22T21:13:19.030Z,28.67
2023-04-22T21:15:55.957Z,24.40
2023-04-22T21:18:26.579Z,21.87
2023-04-22T21:20:56.356Z,21.87
2023-04-22T21:23:25.244Z,27.17
2023-04-22T21:25:56.182Z,22.93
2023-04-22T21:28:26.325Z,23.10
2023-04-22T21:30:55.709Z,22.80
2023-04-22T21:33:25.350Z,18.53
2023-04-22T21:35:53.388Z,21.03
2023-04-22T21:38:21.811Z,19.23
2023-04-22T21:40:49.872Z,28.93
2023-04-22T21:43:17.893Z,28.63
2023-04-22T21:45:47.324Z,26.20
2023-04-22T21:48:15.372Z,27.30
2023-04-22T21:50:43.667Z,27.13
2023-04-22T21:53:12.366Z,28.60
2023-04-22T21:55:40.630Z,29.13
2023-04-22T21:58:08.639Z,28.80
2023-04-22T22:00:37.835Z,27.60
2023-04-22T22:03:07.634Z,33.37
2023-04-22T22:05:36.705Z,33.10
2023-04-22T22:08:04.866Z,44.87
2023-04-22T22:10:32.988Z,34.83
2023-04-22T22:13:01.068Z,34.77
2023-04-22T22:15:29.202Z,42.40
2023-04-22T22:17:57.582Z,30.73
2023-04-22T22:20:27.055Z,32.27
2023-04-22T22:22:55.251Z,39.17
2023-04-22T22:25:23.257Z,42.50
2023-04-22T22:27:51.305Z,40.87
2023-04-22T22:30:21.636Z,37.13
2023-04-22T22:32:49.934Z,33.90
2023-04-22T22:35:18.220Z,35.27
2023-04-22T22:37:48.072Z,34.23
2023-04-22T22:40:16.518Z,31.73
2023-04-22T22:42:44.771Z,36.27
2023-04-22T22:45:13.264Z,30.57
2023-04-22T22:47:41.382Z,35.13
2023-04-22T22:50:10.016Z,28.47
2023-04-22T22:52:38.057Z,34.87
2023-04-22T22:55:10.252Z,32.90
2023-04-22T22:57:38.382Z,32.27
2023-04-22T23:00:09.475Z,38.73
2023-04-22T23:02:37.898Z,35.53
2023-04-22T23:05:09.536Z,40.37
2023-04-22T23:07:38.806Z,43.73
2023-04-22T23:10:09.671Z,76.67
2023-04-22T23:12:37.709Z,64.53
2023-04-22T23:15:07.795Z,51.57
2023-04-22T23:17:37.283Z,45.37
2023-04-22T23:20:08.183Z,56.47
2023-04-22T23:22:38.774Z,51.80
2023-04-22T23:25:09.624Z,54.63
2023-04-22T23:27:38.185Z,46.23
2023-04-22T23:30:07.806Z,46.73
2023-04-22T23:32:40.076Z,48.50
2023-04-22T23:35:09.684Z,42.27
2023-04-22T23:37:38.832Z,39.33
2023-04-22T23:40:10.415Z,44.30
2023-04-22T23:42:38.368Z,34.90
2023-04-22T23:45:07.494Z,41.70
2023-04-22T23:47:35.736Z,79.57
2023-04-22T23:50:04.877Z,102.40
2023-04-22T23:52:32.845Z,101.87
2023-04-22T23:55:01.216Z,76.43
2023-04-22T23:57:31.152Z,65.03
2023-04-22T23:59:59.550Z,93.73
